Terminal Aerodrome Forecast
Issued by NWS Chicago, IL

Home | Current Version | Previous Version | Text Only | Print | Product List | Glossary On
Versions: 1 2 3 4 5 6 7 8 9 10 11 12 13 14 15 16 17 18 19 20 21 22 23 24 25 26 27 28 29
853
FTUS43 KLOT 232056 AAA
TAFRFD
TAF AMD
KRFD 232056Z 2321/2418 08013G20KT P6SM VCSH OVC017
      TEMPO 2322/2401 -SHRA SCT017 OVC025
     FM240100 04014G22KT 4SM -SHRA BR OVC010
     FM240400 06017G25KT 3SM SHRA BR OVC006
      TEMPO 2405/2409 2SM TSRA OVC008CB
     FM241200 07015G23KT 2SM -RADZ BR VCSH OVC004=

USA.gov is the U.S. government's official web portal to all federal, state and local government web resources and services.